createdAt,value
2022-08-26T00:03:14.113Z,19.78
2022-08-26T00:08:17.943Z,19.90
2022-08-26T00:13:19.920Z,19.72
2022-08-26T00:18:22.761Z,19.57
2022-08-26T00:23:24.802Z,19.57
2022-08-26T00:28:30.546Z,19.66
2022-08-26T00:33:32.242Z,19.69
2022-08-26T00:38:35.554Z,19.73
2022-08-26T00:43:46.229Z,19.77
2022-08-26T00:48:53.989Z,19.84
2022-08-26T00:54:03.828Z,19.71
2022-08-26T00:59:11.806Z,19.73
2022-08-26T01:04:15.890Z,19.64
2022-08-26T01:09:19.303Z,19.57
2022-08-26T01:14:22.486Z,19.48
2022-08-26T01:19:31.089Z,19.53
2022-08-26T01:24:32.903Z,19.46
2022-08-26T01:29:36.122Z,19.31
2022-08-26T01:34:39.991Z,19.28
2022-08-26T01:39:43.129Z,19.31
2022-08-26T01:44:51.431Z,19.49
2022-08-26T01:49:55.806Z,19.59
2022-08-26T01:54:59.469Z,19.39
2022-08-26T02:00:06.002Z,19.46
2022-08-26T02:05:30.769Z,19.51
2022-08-26T02:10:34.149Z,19.37
2022-08-26T02:15:42.886Z,19.33
2022-08-26T02:20:44.942Z,19.26
2022-08-26T02:25:56.017Z,19.30
2022-08-26T02:30:57.707Z,19.44
2022-08-26T02:36:00.812Z,19.35
2022-08-26T02:41:02.605Z,19.21
2022-08-26T02:46:05.917Z,19.30
2022-08-26T02:51:08.060Z,19.36
2022-08-26T02:56:10.430Z,19.36
2022-08-26T03:01:29.982Z,19.34
2022-08-26T03:06:31.794Z,19.20
2022-08-26T03:11:34.357Z,19.16
2022-08-26T03:16:37.386Z,19.07
2022-08-26T03:21:39.538Z,18.73
2022-08-26T03:26:52.361Z,18.64
2022-08-26T03:31:55.375Z,18.74
2022-08-26T03:36:57.081Z,18.67
2022-08-26T03:41:58.899Z,18.61
2022-08-26T03:47:00.706Z,18.65
2022-08-26T03:52:04.448Z,18.87
2022-08-26T03:57:06.162Z,18.98
2022-08-26T04:02:11.361Z,18.84
2022-08-26T04:07:13.546Z,18.94
2022-08-26T04:12:17.093Z,18.84
2022-08-26T04:17:19.593Z,18.76
2022-08-26T04:22:26.729Z,18.73
2022-08-26T04:27:31.182Z,18.78
2022-08-26T04:32:32.916Z,18.66
2022-08-26T04:37:35.693Z,18.51
2022-08-26T04:42:37.426Z,18.59
2022-08-26T04:47:39.123Z,18.74
2022-08-26T04:52:40.797Z,18.60
2022-08-26T04:57:43.082Z,18.56
2022-08-26T05:02:46.115Z,18.66
2022-08-26T05:07:47.876Z,18.69
2022-08-26T05:12:51.583Z,18.56
2022-08-26T05:18:21.286Z,18.75
2022-08-26T05:23:25.242Z,18.90
2022-08-26T05:28:28.930Z,18.96
2022-08-26T05:33:30.574Z,18.79
2022-08-26T05:38:32.220Z,18.89
2022-08-26T05:43:34.316Z,18.92
2022-08-26T05:48:37.893Z,18.92
2022-08-26T05:53:43.875Z,18.94
2022-08-26T05:58:58.368Z,18.98
2022-08-26T06:04:02.027Z,19.09
2022-08-26T06:09:06.358Z,19.26
2022-08-26T06:14:11.673Z,19.31
2022-08-26T06:19:15.525Z,19.44
2022-08-26T06:24:35.705Z,19.59
2022-08-26T06:29:38.449Z,19.86
2022-08-26T06:34:40.314Z,20.04
2022-08-26T06:39:41.970Z,20.19
2022-08-26T06:44:44.585Z,20.27
2022-08-26T06:49:46.538Z,20.48
2022-08-26T06:54:48.444Z,20.68
2022-08-26T06:59:52.757Z,20.80
2022-08-26T07:04:54.582Z,20.88
2022-08-26T07:09:58.722Z,21.03
2022-08-26T07:15:00.551Z,21.17
2022-08-26T07:20:03.416Z,21.32
2022-08-26T07:25:08.630Z,21.44
2022-08-26T07:30:11.005Z,21.55
2022-08-26T07:35:16.980Z,21.69
2022-08-26T07:40:19.098Z,21.81
2022-08-26T07:45:22.130Z,21.92
2022-08-26T07:50:49.100Z,22.04
2022-08-26T07:55:46.625Z,22.20
2022-08-26T08:00:48.689Z,22.37
2022-08-26T08:05:50.640Z,22.54
2022-08-26T08:10:55.850Z,22.70
2022-08-26T08:15:57.561Z,22.82
2022-08-26T08:21:21.378Z,23.01
2022-08-26T08:26:26.081Z,23.20
2022-08-26T08:31:56.953Z,23.36
2022-08-26T08:36:53.453Z,23.50
2022-08-26T08:42:05.932Z,23.63
2022-08-26T08:47:30.938Z,23.78
2022-08-26T08:52:35.539Z,23.99
2022-08-26T08:57:43.749Z,24.20
2022-08-26T09:02:59.920Z,24.48
2022-08-26T09:08:06.631Z,24.75
2022-08-26T09:13:13.716Z,24.97
2022-08-26T09:18:30.601Z,25.05
2022-08-26T09:23:35.932Z,25.12
2022-08-26T09:28:42.518Z,25.30
2022-08-26T09:33:44.407Z,25.56
2022-08-26T09:38:46.152Z,25.73
2022-08-26T09:44:18.422Z,25.71
2022-08-26T09:49:25.393Z,25.90
2022-08-26T09:54:30.425Z,26.15
2022-08-26T09:59:34.132Z,26.37
2022-08-26T10:04:37.194Z,26.52
2022-08-26T10:09:43.067Z,26.51
2022-08-26T10:14:59.730Z,26.53
2022-08-26T10:20:15.813Z,26.53
2022-08-26T10:25:33.244Z,26.53
2022-08-26T10:30:42.961Z,26.54
2022-08-26T10:35:54.907Z,26.45
2022-08-26T10:41:20.661Z,26.32
2022-08-26T10:46:27.367Z,26.17
2022-08-26T10:51:36.341Z,25.87
2022-08-26T10:56:51.005Z,25.63
2022-08-26T11:02:07.433Z,25.45
2022-08-26T11:07:34.118Z,24.90
2022-08-26T11:12:36.090Z,24.49
2022-08-26T11:24:52.383Z,23.99
2022-08-26T11:30:08.242Z,24.02
2022-08-26T11:35:19.235Z,23.87
2022-08-26T11:40:27.808Z,23.83
2022-08-26T11:46:00.135Z,23.85
2022-08-26T11:51:06.601Z,23.97
2022-08-26T11:56:33.158Z,24.12
2022-08-26T12:01:43.854Z,24.30
2022-08-26T12:06:50.785Z,24.51
2022-08-26T12:12:25.021Z,24.76
2022-08-26T12:17:27.928Z,24.95
2022-08-26T12:22:34.594Z,25.10
2022-08-26T12:27:45.442Z,25.25
2022-08-26T12:32:57.593Z,25.43
2022-08-26T12:38:01.423Z,25.56
2022-08-26T12:43:06.433Z,25.71
2022-08-26T12:48:44.479Z,25.94
2022-08-26T12:53:46.477Z,26.18
2022-08-26T12:59:02.624Z,26.35
2022-08-26T13:04:06.554Z,26.41
2022-08-26T13:09:08.477Z,26.62
2022-08-26T13:14:15.538Z,26.95
2022-08-26T13:19:29.515Z,27.02
2022-08-26T13:24:35.938Z,27.47
2022-08-26T13:29:38.246Z,27.77
2022-08-26T13:34:40.495Z,28.07
2022-08-26T13:39:43.809Z,28.39
2022-08-26T13:44:47.801Z,28.59
2022-08-26T13:49:49.504Z,28.72
2022-08-26T13:54:51.811Z,28.87
2022-08-26T13:59:57.093Z,29.18
2022-08-26T14:04:59.183Z,29.09
2022-08-26T14:10:01.586Z,29.40
2022-08-26T14:15:03.737Z,29.62
2022-08-26T14:20:07.907Z,29.81
2022-08-26T14:25:12.158Z,29.81
2022-08-26T14:30:14.691Z,29.86
2022-08-26T14:35:22.900Z,29.85
2022-08-26T14:40:29.812Z,30.08
2022-08-26T14:45:34.757Z,30.19
2022-08-26T14:50:36.535Z,30.40
2022-08-26T14:55:41.108Z,30.44
2022-08-26T15:00:43.404Z,30.71
2022-08-26T15:05:48.154Z,30.67
2022-08-26T15:10:50.734Z,30.41
2022-08-26T15:15:52.545Z,30.26
2022-08-26T15:20:54.498Z,29.51
2022-08-26T15:25:56.535Z,28.77
2022-08-26T15:30:58.267Z,28.46
2022-08-26T15:36:01.827Z,28.32
2022-08-26T15:41:05.074Z,28.12
2022-08-26T15:46:10.886Z,28.00
2022-08-26T15:51:31.817Z,27.93
2022-08-26T15:56:36.234Z,27.75
2022-08-26T16:01:38.661Z,27.68
2022-08-26T16:06:42.402Z,27.61
2022-08-26T16:11:44.126Z,27.43
2022-08-26T16:16:45.769Z,27.27
2022-08-26T16:21:48.042Z,27.06
2022-08-26T16:26:49.747Z,26.86
2022-08-26T16:31:53.270Z,26.61
2022-08-26T16:36:54.991Z,26.56
2022-08-26T16:41:57.137Z,26.47
2022-08-26T16:46:58.961Z,26.32
2022-08-26T16:52:04.481Z,26.16
2022-08-26T16:57:08.469Z,26.06
2022-08-26T17:02:11.795Z,25.96
2022-08-26T17:07:13.627Z,25.89
2022-08-26T17:12:15.494Z,25.66
2022-08-26T17:17:17.335Z,25.26
2022-08-26T17:22:19.703Z,24.96
2022-08-26T17:27:21.537Z,24.91
2022-08-26T17:32:23.583Z,24.66
2022-08-26T17:37:25.848Z,24.72
2022-08-26T17:42:31.533Z,24.77
2022-08-26T17:47:34.375Z,24.63
2022-08-26T17:52:37.058Z,24.35
2022-08-26T17:57:40.680Z,24.25
2022-08-26T18:02:44.702Z,24.22
2022-08-26T18:07:47.155Z,24.20
2022-08-26T18:12:49.001Z,23.96
2022-08-26T18:17:50.817Z,23.50
2022-08-26T18:22:53.995Z,23.46
2022-08-26T18:27:55.683Z,23.56
2022-08-26T18:32:57.898Z,23.56
2022-08-26T18:38:11.301Z,23.58
2022-08-26T18:43:13.623Z,23.58
2022-08-26T18:48:16.664Z,23.50
2022-08-26T18:53:18.332Z,23.44
2022-08-26T18:58:20.176Z,22.93
2022-08-26T19:03:22.068Z,22.74
2022-08-26T19:08:23.857Z,22.79
2022-08-26T19:13:26.166Z,22.85
2022-08-26T19:18:27.961Z,22.81
2022-08-26T19:23:31.905Z,22.54
2022-08-26T19:28:34.558Z,22.29
2022-08-26T19:33:41.866Z,22.38
2022-08-26T19:38:45.009Z,22.17
2022-08-26T19:43:46.937Z,22.21
2022-08-26T19:48:54.064Z,22.26
2022-08-26T19:53:59.699Z,21.86
2022-08-26T19:59:01.678Z,21.49
2022-08-26T20:04:04.149Z,21.28
2022-08-26T20:09:06.007Z,21.21
2022-08-26T20:14:07.818Z,21.15
2022-08-26T20:19:28.283Z,21.29
2022-08-26T20:24:31.451Z,21.59
2022-08-26T20:29:34.783Z,21.79
2022-08-26T20:34:36.937Z,21.81
2022-08-26T20:39:38.706Z,21.75
2022-08-26T20:44:43.217Z,21.69
2022-08-26T20:49:56.978Z,21.48
2022-08-26T20:54:58.660Z,21.53
2022-08-26T21:00:00.961Z,21.62
2022-08-26T21:05:02.854Z,21.61
2022-08-26T21:10:05.002Z,21.60
2022-08-26T21:15:07.425Z,21.30
2022-08-26T21:20:09.566Z,21.02
2022-08-26T21:25:11.658Z,20.93
2022-08-26T21:30:15.541Z,20.70
2022-08-26T21:35:18.402Z,20.55
2022-08-26T21:40:20.175Z,20.72
2022-08-26T21:45:21.926Z,20.90
2022-08-26T21:50:23.842Z,21.02
2022-08-26T21:55:25.831Z,21.05
2022-08-26T22:00:27.909Z,20.99
2022-08-26T22:05:29.997Z,20.86
2022-08-26T22:10:31.793Z,20.79
2022-08-26T22:15:35.437Z,20.76
2022-08-26T22:20:37.186Z,20.66
2022-08-26T22:25:39.013Z,20.67
2022-08-26T22:30:45.582Z,20.78
2022-08-26T22:35:50.548Z,20.82
2022-08-26T22:40:57.464Z,20.69
2022-08-26T22:45:59.449Z,20.38
2022-08-26T22:51:01.208Z,20.41
2022-08-26T22:56:04.056Z,20.40
2022-08-26T23:01:07.089Z,20.25
2022-08-26T23:06:10.347Z,20.03
2022-08-26T23:11:13.773Z,19.56
2022-08-26T23:16:15.579Z,19.40
2022-08-26T23:21:17.591Z,19.45
2022-08-26T23:26:19.860Z,19.55
2022-08-26T23:31:21.610Z,19.37
2022-08-26T23:36:23.652Z,19.01
2022-08-26T23:41:25.867Z,18.96
2022-08-26T23:46:27.723Z,19.12
2022-08-26T23:52:05.036Z,19.11
2022-08-26T23:57:07.305Z,19.09
